Time;durP1;ratioP1;P1;durP2;ratioP2;P2;SDS_P1;SDS_P2;PMS_P1;PMS_P2;Temp;Humidity;BMP_temperature;BMP_pressure;BME280_temperature;BME280_humidity;BME280_pressure;Samples;Min_cycle;Max_cycle;Signal;HPM_P1;HPM_P2
2022/10/02 00:01:54;;;;;;;1.53;0.80;;;;;;;10.73;100.00;100061.88;5030552;28;20187;-73
2022/10/02 00:04:50;;;;;;;0.10;0.10;;;;;;;10.78;100.00;100072.66;5031509;28;20188;-73
2022/10/02 00:07:20;;;;;;;12.53;1.40;;;;;;;10.75;100.00;100065.09;5031440;28;20243;-73
2022/10/02 00:09:56;;;;;;;3.27;1.77;;;;;;;10.75;100.00;100076.03;5031755;28;20176;-73
2022/10/02 00:12:25;;;;;;;2.07;0.97;;;;;;;10.76;100.00;100066.72;5031411;28;20170;-73
2022/10/02 00:14:54;;;;;;;0.63;0.60;;;;;;;10.78;100.00;100069.91;5031418;28;20187;-73
2022/10/02 00:17:32;;;;;;;6.33;0.50;;;;;;;10.70;100.00;100059.78;5031284;28;20183;-72
2022/10/02 00:19:57;;;;;;;0.90;0.90;;;;;;;10.67;100.00;100074.09;5031096;28;20180;-73
2022/10/02 00:22:46;;;;;;;0.83;0.67;;;;;;;10.65;100.00;100073.59;5031534;28;20187;-73
2022/10/02 00:25:30;;;;;;;3.00;0.97;;;;;;;10.69;100.00;100080.84;5031226;28;20172;-74
2022/10/02 00:28:18;;;;;;;4.30;2.00;;;;;;;10.76;100.00;100076.84;5030988;28;20234;-73
2022/10/02 00:31:05;;;;;;;1.10;1.00;;;;;;;10.75;100.00;100075.22;5021637;28;20298;-73
2022/10/02 00:33:45;;;;;;;1.83;0.93;;;;;;;10.74;100.00;100082.63;5031085;28;20180;-72
2022/10/02 00:36:48;;;;;;;1.43;0.73;;;;;;;10.77;100.00;100075.72;5030813;28;20513;-73
2022/10/02 00:39:37;;;;;;;3.93;0.23;;;;;;;10.82;100.00;100084.53;4999956;28;20275;-73
2022/10/02 00:42:29;;;;;;;0.83;0.53;;;;;;;10.89;100.00;100081.34;5030971;28;20160;-73
2022/10/02 00:45:33;;;;;;;3.27;0.63;;;;;;;10.90;100.00;100074.75;5030865;28;20165;-73
2022/10/02 00:48:26;;;;;;;0.77;0.70;;;;;;;10.91;100.00;100090.81;4969764;28;20277;-74
2022/10/02 00:50:51;;;;;;;0.30;0.30;;;;;;;10.87;100.00;100098.06;5030872;28;20177;-73
2022/10/02 00:54:12;;;;;;;3.73;0.60;;;;;;;10.84;100.00;100092.41;5030994;28;20176;-73
2022/10/02 00:56:49;;;;;;;0.30;0.30;;;;;;;10.81;100.00;100090.31;5010666;28;20241;-73
2022/10/02 00:59:30;;;;;;;2.30;0.47;;;;;;;10.79;100.00;100092.56;5030812;28;20163;-73
2022/10/02 01:02:04;;;;;;;1.60;0.53;;;;;;;10.78;100.00;100094.50;5030954;28;20164;-73
2022/10/02 01:04:33;;;;;;;0.53;0.30;;;;;;;10.80;100.00;100095.00;5030640;28;20186;-74
2022/10/02 01:06:59;;;;;;;0.67;0.43;;;;;;;10.81;100.00;100090.31;5009247;28;20201;-73
2022/10/02 01:09:24;;;;;;;0.13;0.13;;;;;;;10.90;100.00;100091.13;5011006;28;20172;-73
2022/10/02 01:11:50;;;;;;;0.63;0.37;;;;;;;10.94;100.00;100103.84;5009772;28;20180;-73
2022/10/02 01:14:16;;;;;;;0.60;0.60;;;;;;;10.97;100.00;100097.72;5010910;28;20183;-73
2022/10/02 01:16:42;;;;;;;8.87;0.67;;;;;;;10.99;100.00;100091.91;5010630;28;20180;-73
2022/10/02 01:19:28;;;;;;;0.50;0.50;;;;;;;11.06;100.00;100095.00;5010890;28;20176;-74
2022/10/02 01:22:03;;;;;;;0.57;0.40;;;;;;;11.12;100.00;100092.88;5010745;28;20177;-75
2022/10/02 01:24:35;;;;;;;2.50;1.50;;;;;;;11.11;100.00;100104.94;5010797;28;20196;-73
2022/10/02 01:27:01;;;;;;;4.60;1.33;;;;;;;11.12;100.00;100101.06;5010395;28;20731;-73
2022/10/02 01:29:26;;;;;;;2.30;2.10;;;;;;;11.10;100.00;100104.13;5010731;28;20268;-73
2022/10/02 01:31:51;;;;;;;0.60;0.60;;;;;;;11.07;100.00;100110.25;5010735;28;20177;-73
2022/10/02 01:34:17;;;;;;;2.27;0.77;;;;;;;11.07;100.00;100117.66;5010703;28;20199;-73
2022/10/02 01:36:42;;;;;;;5.27;0.87;;;;;;;11.01;100.00;100120.56;5010484;28;20179;-73
2022/10/02 01:39:08;;;;;;;10.60;2.20;;;;;;;10.98;100.00;100106.72;5010647;28;20643;-74
2022/10/02 01:41:42;;;;;;;0.80;0.60;;;;;;;10.95;100.00;100118.31;5010512;28;20184;-74
2022/10/02 01:44:07;;;;;;;1.17;0.80;;;;;;;10.95;100.00;100113.63;5009340;28;20161;-73
2022/10/02 01:46:45;;;;;;;0.60;0.50;;;;;;;10.96;100.00;100125.38;5009019;28;20227;-73
2022/10/02 01:49:58;;;;;;;1.13;1.00;;;;;;;10.94;100.00;100122.16;5010860;28;20248;-73
2022/10/02 01:52:48;;;;;;;3.87;1.80;;;;;;;10.95;100.00;100113.63;4978996;28;20192;-73
2022/10/02 01:55:28;;;;;;;1.77;1.43;;;;;;;10.97;100.00;100118.78;5010349;28;20660;-73
2022/10/02 01:58:15;;;;;;;5.30;1.63;;;;;;;11.01;100.00;100117.03;5025425;28;20168;-74
2022/10/02 02:01:34;;;;;;;3.70;0.90;;;;;;;11.05;100.00;100120.72;5010730;28;20189;-73
2022/10/02 02:04:18;;;;;;;1.40;1.17;;;;;;;11.09;100.00;100120.88;4968580;28;20336;-73
2022/10/02 02:07:22;;;;;;;9.80;2.03;;;;;;;11.09;100.00;100112.66;5007726;28;20216;-73
2022/10/02 02:09:55;;;;;;;2.97;1.77;;;;;;;11.06;100.00;100116.84;5012640;28;20396;-73
2022/10/02 02:12:27;;;;;;;10.30;2.47;;;;;;;11.07;100.00;100118.47;5014008;28;20494;-73
2022/10/02 02:15:03;;;;;;;5.07;2.73;;;;;;;11.04;100.00;100121.84;5029006;28;20239;-76
2022/10/02 02:17:41;;;;;;;3.10;2.73;;;;;;;11.03;100.00;100128.44;5013594;28;20172;-76
2022/10/02 02:20:23;;;;;;;10.80;3.50;;;;;;;11.10;100.00;100117.81;5013576;28;20211;-75
2022/10/02 02:22:52;;;;;;;6.70;1.50;;;;;;;11.11;100.00;100113.94;5013434;28;20686;-76
2022/10/02 02:25:21;;;;;;;10.00;5.23;;;;;;;11.14;100.00;100115.22;5013615;28;20203;-76
2022/10/02 02:27:51;;;;;;;14.40;4.63;;;;;;;11.14;100.00;100109.75;5013171;28;20208;-76
2022/10/02 02:30:18;;;;;;;8.23;2.93;;;;;;;11.14;100.00;100107.03;5028696;28;20188;-76
2022/10/02 02:32:49;;;;;;;9.57;2.80;;;;;;;11.14;100.00;100113.31;5013541;28;20180;-75
2022/10/02 02:35:30;;;;;;;4.93;2.47;;;;;;;11.13;100.00;100108.16;5028596;28;20540;-76
2022/10/02 02:38:02;;;;;;;9.80;4.10;;;;;;;11.11;100.00;100099.47;5013196;28;20682;-75
2022/10/02 02:40:31;;;;;;;14.63;4.33;;;;;;;11.12;100.00;100101.06;5013397;28;20667;-76
2022/10/02 02:43:30;;;;;;;8.70;5.07;;;;;;;11.08;100.00;100098.19;5011967;28;20177;-76
2022/10/02 02:45:57;;;;;;;4.83;3.87;;;;;;;11.06;100.00;100105.91;5012467;28;20189;-75
2022/10/02 02:48:31;;;;;;;5.90;5.33;;;;;;;11.06;100.00;100105.91;5028563;28;20734;-76
2022/10/02 02:51:01;;;;;;;9.50;4.90;;;;;;;11.09;100.00;100109.94;5011989;28;20172;-76
2022/10/02 02:53:45;;;;;;;2.23;2.03;;;;;;;11.14;100.00;100115.22;5028142;28;20283;-77
2022/10/02 02:56:15;;;;;;;12.10;3.63;;;;;;;11.14;100.00;100123.44;5012798;28;20176;-76
2022/10/02 02:58:50;;;;;;;9.47;4.43;;;;;;;11.12;100.00;100120.22;5012955;28;20181;-77
2022/10/02 03:01:15;;;;;;;5.20;4.13;;;;;;;11.11;100.00;100122.16;5012941;28;20164;-76
2022/10/02 03:03:40;;;;;;;16.60;5.90;;;;;;;11.09;100.00;100129.88;5012834;28;20185;-76
2022/10/02 03:06:25;;;;;;;6.80;4.43;;;;;;;11.12;100.00;100131.97;5027862;28;20181;-76
2022/10/02 03:08:52;;;;;;;4.97;3.43;;;;;;;11.13;100.00;100130.81;5028032;28;20172;-73
2022/10/02 03:11:48;;;;;;;14.07;3.30;;;;;;;11.14;100.00;100132.47;5012510;28;20644;-74
2022/10/02 03:14:51;;;;;;;4.47;4.07;;;;;;;11.19;100.00;100137.75;5012762;28;20169;-73
2022/10/02 03:17:35;;;;;;;3.83;2.83;;;;;;;11.22;100.00;100128.91;5011031;28;20579;-74
2022/10/02 03:20:24;;;;;;;6.63;4.03;;;;;;;11.23;100.00;100138.72;5011281;28;20179;-74
2022/10/02 03:23:07;;;;;;;10.30;3.90;;;;;;;11.26;100.00;100134.53;5012626;28;20578;-73
2022/10/02 03:25:52;;;;;;;12.87;4.57;;;;;;;11.30;100.00;100136.31;5012333;28;20188;-73
2022/10/02 03:28:42;;;;;;;11.13;2.70;;;;;;;11.38;100.00;100142.06;5027580;28;20192;-74
2022/10/02 03:31:11;;;;;;;26.33;6.77;;;;;;;11.46;100.00;100133.88;5012295;28;20161;-74
2022/10/02 03:33:37;;;;;;;13.70;4.80;;;;;;;11.48;100.00;100128.06;5012657;28;20212;-73
2022/10/02 03:36:04;;;;;;;4.93;3.03;;;;;;;11.53;100.00;100133.34;5011926;28;20196;-74
2022/10/02 03:38:31;;;;;;;4.13;3.00;;;;;;;11.56;100.00;100136.25;5012243;28;20173;-73
2022/10/02 03:40:59;;;;;;;2.70;2.37;;;;;;;11.60;100.00;100125.47;5012175;28;20172;-74
2022/10/02 03:43:28;;;;;;;14.03;5.43;;;;;;;11.64;100.00;100140.09;5012121;28;20258;-74
2022/10/02 03:45:53;;;;;;;13.23;3.53;;;;;;;11.65;100.00;100138.97;5011784;28;20177;-74
2022/10/02 03:48:19;;;;;;;8.60;4.87;;;;;;;11.67;100.00;100128.50;5011756;28;20465;-74
2022/10/02 03:50:44;;;;;;;11.50;4.57;;;;;;;11.68;100.00;100149.25;5011992;28;20175;-73
2022/10/02 03:53:14;;;;;;;14.53;8.67;;;;;;;11.70;100.00;100133.31;5012224;28;20569;-73
2022/10/02 03:55:44;;;;;;;24.63;7.90;;;;;;;11.72;100.00;100122.06;5011743;28;20183;-73
2022/10/02 03:58:15;;;;;;;5.13;4.60;;;;;;;11.74;100.00;100117.06;5011909;28;20188;-73
2022/10/02 04:00:48;;;;;;;11.00;5.73;;;;;;;11.74;100.00;100111.59;5011688;28;20168;-74
2022/10/02 04:03:19;;;;;;;17.53;7.17;;;;;;;11.72;100.00;100114.66;5011706;28;20219;-72
2022/10/02 04:06:00;;;;;;;6.07;3.90;;;;;;;11.69;100.00;100109.81;5011471;28;20217;-73
2022/10/02 04:08:38;;;;;;;5.63;5.17;;;;;;;11.69;100.00;100118.03;5011627;28;20204;-73
2022/10/02 04:11:34;;;;;;;5.90;5.40;;;;;;;11.69;100.00;100118.03;5011658;28;20176;-73
2022/10/02 04:14:18;;;;;;;24.67;9.30;;;;;;;11.70;100.00;100119.63;5026856;28;20192;-73
2022/10/02 04:17:12;;;;;;;10.23;4.90;;;;;;;11.67;100.00;100116.75;5011327;28;20176;-73
2022/10/02 04:19:47;;;;;;;7.60;6.70;;;;;;;11.63;100.00;100120.16;5011436;28;20180;-73
2022/10/02 04:22:29;;;;;;;23.80;5.27;;;;;;;11.66;100.00;100131.56;5011742;28;20180;-73
2022/10/02 04:25:04;;;;;;;20.93;5.87;;;;;;;11.69;100.00;100142.66;5026609;28;20165;-73
2022/10/02 04:27:39;;;;;;;10.83;7.13;;;;;;;11.66;100.00;100126.88;5011114;28;20192;-73
2022/10/02 04:30:10;;;;;;;6.90;6.27;;;;;;;11.67;100.00;100136.72;5011200;28;20168;-74
2022/10/02 04:32:36;;;;;;;17.63;5.93;;;;;;;11.65;100.00;100140.91;5011402;28;20625;-73
2022/10/02 04:35:37;;;;;;;9.63;4.90;;;;;;;11.67;100.00;100144.91;5011225;28;20173;-73
2022/10/02 04:38:30;;;;;;;25.10;8.40;;;;;;;11.66;100.00;100158.94;4988234;28;20196;-73
2022/10/02 04:41:18;;;;;;;4.37;4.07;;;;;;;11.65;100.00;100149.91;5011261;28;20231;-73
2022/10/02 04:44:16;;;;;;;14.60;6.93;;;;;;;11.66;100.00;100148.78;5011230;28;20200;-73
2022/10/02 04:47:07;;;;;;;14.63;2.23;;;;;;;11.67;100.00;100144.91;5010741;28;20177;-74
2022/10/02 04:49:59;;;;;;;29.60;12.13;;;;;;;11.69;100.00;100141.84;5011106;28;20184;-74
2022/10/02 04:52:33;;;;;;;6.97;6.07;;;;;;;11.69;100.00;100141.84;5011078;28;20163;-73
2022/10/02 04:55:24;;;;;;;4.93;4.53;;;;;;;11.67;100.00;100150.38;5011004;28;20176;-73
2022/10/02 04:58:20;;;;;;;8.03;7.23;;;;;;;11.70;100.00;100151.66;5010892;28;20175;-74
2022/10/02 05:01:05;;;;;;;26.80;6.77;;;;;;;11.69;100.00;100148.13;5010920;28;20191;-73
2022/10/02 05:03:33;;;;;;;8.63;5.60;;;;;;;11.68;100.00;100149.25;5010986;28;20188;-74
2022/10/02 05:06:23;;;;;;;2.73;2.53;;;;;;;11.71;100.00;100148.59;5011203;28;20177;-76
2022/10/02 05:08:56;;;;;;;6.30;5.67;;;;;;;11.73;100.00;100160.03;5014447;28;20250;-76
2022/10/02 05:11:24;;;;;;;4.00;3.70;;;;;;;11.71;100.00;100175.97;5014265;28;20724;-74
2022/10/02 05:14:23;;;;;;;5.60;4.40;;;;;;;11.71;100.00;100175.16;5010924;28;20187;-76
2022/10/02 05:17:02;;;;;;;6.47;5.90;;;;;;;11.70;100.00;100193.53;4980131;28;20230;-75
2022/10/02 05:19:41;;;;;;;10.73;5.40;;;;;;;11.68;100.00;100194.97;5011108;28;20287;-75
2022/10/02 05:22:29;;;;;;;5.87;5.27;;;;;;;11.61;100.00;100192.75;5011172;28;20177;-74
2022/10/02 05:25:18;;;;;;;11.77;5.47;;;;;;;11.54;100.00;100179.53;5002652;28;20197;-75
2022/10/02 05:28:20;;;;;;;4.93;4.43;;;;;;;11.47;100.00;100181.19;5010291;28;20568;-75
2022/10/02 05:30:55;;;;;;;4.10;3.70;;;;;;;11.43;100.00;100180.19;5010812;28;20175;-75
2022/10/02 05:33:39;;;;;;;8.27;3.17;;;;;;;11.37;100.00;100182.31;4993055;28;20196;-74
2022/10/02 05:36:07;;;;;;;10.30;5.73;;;;;;;11.33;100.00;100168.47;5010325;28;20256;-75
2022/10/02 05:38:53;;;;;;;24.63;6.80;;;;;;;11.28;100.00;100157.72;5010498;28;20271;-75
2022/10/02 05:41:21;;;;;;;10.20;9.00;;;;;;;11.27;100.00;100163.47;5011350;28;20164;-75
2022/10/02 05:44:03;;;;;;;4.10;3.90;;;;;;;11.27;100.00;100169.75;4996844;28;20176;-75
2022/10/02 05:46:37;;;;;;;5.90;5.03;;;;;;;11.30;100.00;100165.59;4996397;28;20179;-75
2022/10/02 05:49:12;;;;;;;2.20;2.00;;;;;;;11.30;100.00;100166.41;5014430;28;20175;-76
2022/10/02 05:51:59;;;;;;;24.53;5.20;;;;;;;11.30;100.00;100163.66;4996624;28;20184;-75
2022/10/02 05:54:48;;;;;;;17.07;8.77;;;;;;;11.30;100.00;100166.41;5014876;28;20208;-75
2022/10/02 05:57:26;;;;;;;7.73;5.27;;;;;;;11.29;100.00;100175.72;5013960;28;20189;-75
2022/10/02 05:59:56;;;;;;;6.33;5.03;;;;;;;11.32;100.00;100187.94;5014161;28;20188;-75
2022/10/02 06:02:46;;;;;;;6.43;5.10;;;;;;;11.36;100.00;100182.63;4996129;28;20208;-74
2022/10/02 06:05:18;;;;;;;3.20;3.03;;;;;;;11.37;100.00;100184.22;5014251;28;20247;-76
2022/10/02 06:07:48;;;;;;;3.73;2.67;;;;;;;11.46;100.00;100198.72;5013847;28;20243;-74
2022/10/02 06:10:18;;;;;;;17.13;6.23;;;;;;;11.51;100.00;100187.59;4996123;28;20187;-76
2022/10/02 06:13:01;;;;;;;7.57;6.50;;;;;;;11.55;100.00;100194.81;5013979;28;20194;-75
2022/10/02 06:15:42;;;;;;;10.13;4.53;;;;;;;11.60;100.00;100191.13;5015967;28;20183;-75
2022/10/02 06:18:21;;;;;;;29.70;7.90;;;;;;;11.60;100.00;100191.94;4994093;28;20192;-73
2022/10/02 06:21:01;;;;;;;5.90;5.50;;;;;;;11.66;100.00;100200.78;4993924;28;20162;-74
2022/10/02 06:23:38;;;;;;;6.10;5.53;;;;;;;11.67;100.00;100188.69;4993948;28;20181;-76
2022/10/02 06:26:10;;;;;;;13.57;7.97;;;;;;;11.67;100.00;100190.63;4993788;28;20626;-75
2022/10/02 06:28:56;;;;;;;5.17;4.37;;;;;;;11.68;100.00;100195.78;4994205;28;20291;-79
2022/10/02 06:31:33;;;;;;;7.77;6.77;;;;;;;11.68;100.00;100187.56;4993698;28;20169;-75
2022/10/02 06:33:59;;;;;;;5.30;4.80;;;;;;;11.66;100.00;100194.50;4994147;28;20181;-75
2022/10/02 06:36:54;;;;;;;5.37;3.40;;;;;;;11.66;100.00;100195.31;4993871;28;20169;-76
2022/10/02 06:39:38;;;;;;;6.27;5.17;;;;;;;11.70;100.00;100198.19;4996264;28;20535;-75
2022/10/02 06:42:13;;;;;;;6.67;6.07;;;;;;;11.74;100.00;100199.16;4992668;28;20232;-75
2022/10/02 06:44:39;;;;;;;3.90;3.60;;;;;;;11.76;100.00;100203.19;4993549;28;20181;-75
2022/10/02 06:47:26;;;;;;;7.73;4.80;;;;;;;11.80;100.00;100203.34;4993155;28;20200;-75
2022/10/02 06:50:15;;;;;;;8.43;4.03;;;;;;;11.85;100.00;100211.38;4993592;28;20256;-75
2022/10/02 06:52:56;;;;;;;7.33;6.60;;;;;;;11.94;100.00;100211.38;4993041;28;20192;-75
2022/10/02 06:55:34;;;;;;;14.13;4.37;;;;;;;12.04;100.00;100202.81;4993476;28;20378;-75
2022/10/02 06:58:15;;;;;;;9.73;5.33;;;;;;;12.16;100.00;100211.16;4993217;28;20204;-75
2022/10/02 07:00:57;;;;;;;10.53;5.83;;;;;;;12.19;100.00;100210.50;4994462;28;20644;-76
2022/10/02 07:03:41;;;;;;;8.80;3.17;;;;;;;12.26;100.00;100235.44;5010422;28;20274;-76
2022/10/02 07:06:32;;;;;;;6.33;3.33;;;;;;;12.32;100.00;100225.13;5012624;28;20172;-75
2022/10/02 07:09:18;;;;;;;8.43;4.07;;;;;;;12.34;100.00;100233.81;5012722;28;20165;-75
2022/10/02 07:11:54;;;;;;;11.60;3.70;;;;;;;12.34;100.00;100229.13;5012455;28;20475;-75
2022/10/02 07:14:52;;;;;;;2.97;2.27;;;;;;;12.32;100.00;100228.66;5012485;28;20172;-75
2022/10/02 07:17:24;;;;;;;10.97;3.07;;;;;;;12.31;100.00;100221.59;5012233;28;20169;-75
2022/10/02 07:20:21;;;;;;;7.47;3.63;;;;;;;12.31;100.00;100229.81;5018083;28;20275;-76
2022/10/02 07:22:53;;;;;;;6.53;3.70;;;;;;;12.30;100.00;100219.97;5017958;28;20259;-75
2022/10/02 07:25:52;;;;;;;10.23;3.90;;;;;;;12.32;100.00;100209.50;4997034;28;20263;-74
2022/10/02 07:28:38;;;;;;;7.13;5.20;;;;;;;12.42;100.00;100228.28;5010701;28;20215;-75
2022/10/02 07:31:37;;;;;;;6.33;5.50;;;;;;;12.57;100.00;100224.19;5011880;28;20226;-75
2022/10/02 07:34:37;;;;;;;4.57;4.23;;;;;;;12.62;100.00;100231.44;5008147;28;20263;-74
2022/10/02 07:37:16;;;;;;;12.20;3.30;;;;;;;12.61;100.00;100232.56;5012884;28;20271;-76
2022/10/02 07:40:05;;;;;;;6.13;4.77;;;;;;;12.64;100.00;100227.22;5017203;28;20173;-73
2022/10/02 07:42:40;;;;;;;8.07;4.13;;;;;;;12.74;100.00;100237.81;5010877;28;20200;-75
2022/10/02 07:45:14;;;;;;;16.83;5.23;;;;;;;12.73;100.00;100243.59;5016959;28;20176;-72
2022/10/02 07:47:56;;;;;;;4.57;4.27;;;;;;;12.76;100.00;100251.19;5016655;28;20195;-77
2022/10/02 07:50:34;;;;;;;4.20;3.37;;;;;;;12.77;100.00;100263.78;5018179;28;20188;-77
2022/10/02 07:53:37;;;;;;;5.13;4.10;;;;;;;12.74;100.00;100256.22;5014852;28;20255;-79
2022/10/02 07:56:05;;;;;;;4.17;3.90;;;;;;;12.85;100.00;100262.09;4986682;28;20181;-79
2022/10/02 07:58:39;;;;;;;11.33;2.63;;;;;;;12.85;100.00;100268.38;5020882;28;20652;-76
2022/10/02 08:01:12;;;;;;;2.40;2.30;;;;;;;12.90;100.00;100268.22;5026797;28;20171;-77
2022/10/02 08:03:50;;;;;;;10.03;4.03;;;;;;;12.98;100.00;100278.31;5016349;28;20645;-80
2022/10/02 08:06:17;;;;;;;1.87;1.77;;;;;;;13.01;100.00;100280.38;5011090;28;20177;-79
2022/10/02 08:09:10;;;;;;;2.03;1.93;;;;;;;13.07;100.00;100272.78;5011323;28;20219;-77
2022/10/02 08:11:43;;;;;;;12.37;3.70;;;;;;;13.08;100.00;100279.88;5011256;28;20256;-77
2022/10/02 08:14:37;;;;;;;3.93;3.30;;;;;;;13.09;100.00;100278.75;5011190;28;20181;-76
2022/10/02 08:17:13;;;;;;;4.17;3.77;;;;;;;13.09;100.00;100279.56;5010997;28;20657;-74
2022/10/02 08:19:44;;;;;;;1.67;1.60;;;;;;;13.14;100.00;100283.22;5011587;28;20238;-78
2022/10/02 08:22:29;;;;;;;13.77;4.93;;;;;;;13.14;100.00;100283.22;5011248;28;20231;-78
2022/10/02 08:24:57;;;;;;;1.93;1.83;;;;;;;13.15;100.00;100293.06;5011293;28;20533;-77
2022/10/02 08:27:28;;;;;;;9.23;5.60;;;;;;;13.18;100.00;100287.75;5010973;28;20200;-77
2022/10/02 08:30:02;;;;;;;1.57;1.47;;;;;;;13.28;100.00;100286.56;5012232;28;20183;-77
2022/10/02 08:32:31;;;;;;;8.13;5.10;;;;;;;13.37;100.00;100292.78;4987258;28;20205;-76
2022/10/02 08:34:57;;;;;;;5.50;2.47;;;;;;;13.37;100.00;100288.09;5009451;28;20559;-78
2022/10/02 08:37:59;;;;;;;6.10;3.23;;;;;;;13.52;100.00;100308.66;4993053;28;20651;-75
2022/10/02 08:41:03;;;;;;;21.33;3.53;;;;;;;13.55;100.00;100305.25;5014450;28;20187;-77
2022/10/02 08:43:47;;;;;;;4.43;4.00;;;;;;;13.73;100.00;100311.41;4968808;28;20196;-78
2022/10/02 08:46:42;;;;;;;9.23;3.97;;;;;;;13.79;100.00;100310.06;4976396;28;20185;-76
2022/10/02 08:49:39;;;;;;;17.73;4.60;;;;;;;13.87;100.00;100300.94;4991388;28;20190;-74
2022/10/02 08:52:22;;;;;;;4.07;3.50;;;;;;;13.83;100.00;100310.19;5006114;28;20183;-77
2022/10/02 08:55:09;;;;;;;3.07;2.40;;;;;;;13.73;100.00;100310.59;4991047;28;20176;-76
2022/10/02 08:58:13;;;;;;;2.80;2.60;;;;;;;13.65;100.00;100307.59;4990857;28;20173;-76
2022/10/02 09:01:18;;;;;;;12.50;4.57;;;;;;;13.69;100.00;100321.44;4957635;28;20192;-76
2022/10/02 09:04:09;;;;;;;2.60;2.40;;;;;;;13.77;100.00;100325.28;4980498;28;20292;-74
2022/10/02 09:06:53;;;;;;;1.50;1.40;;;;;;;13.80;100.00;100322.66;4990627;28;20656;-76
2022/10/02 09:09:45;;;;;;;17.47;2.57;;;;;;;13.85;100.00;100318.91;4990847;28;20200;-75
2022/10/02 09:12:29;;;;;;;0.50;0.50;;;;;;;13.91;100.00;100323.06;5001008;28;20540;-76
2022/10/02 09:15:09;;;;;;;2.33;1.83;;;;;;;13.95;100.00;100319.28;5008426;28;20268;-74
2022/10/02 09:17:47;;;;;;;16.93;3.80;;;;;;;13.96;99.83;100331.88;5013812;28;20231;-75
2022/10/02 09:20:21;;;;;;;0.87;0.87;;;;;;;14.11;98.76;100319.47;5014533;28;20533;-75
2022/10/02 09:23:16;;;;;;;11.97;2.00;;;;;;;14.24;97.92;100318.38;5014432;28;20533;-75
2022/10/02 09:25:52;;;;;;;5.53;1.87;;;;;;;14.23;95.25;100319.50;5014146;28;20173;-76
2022/10/02 09:28:23;;;;;;;1.93;1.43;;;;;;;14.35;94.59;100326.19;5014524;28;20269;-75
2022/10/02 09:31:13;;;;;;;1.63;0.67;;;;;;;14.45;94.03;100320.28;5014326;28;20230;-75
2022/10/02 09:34:16;;;;;;;3.13;2.83;;;;;;;14.49;92.71;100312.97;5014380;28;20157;-76
2022/10/02 09:36:50;;;;;;;1.73;1.50;;;;;;;14.52;91.69;100323.28;5014170;28;20593;-76
2022/10/02 09:39:43;;;;;;;2.50;2.03;;;;;;;14.61;90.22;100320.41;5014229;28;20202;-76
2022/10/02 09:42:47;;;;;;;10.93;1.43;;;;;;;14.85;90.09;100329.50;5014241;28;20211;-74
2022/10/02 09:45:51;;;;;;;0.60;0.47;;;;;;;15.00;87.96;100329.97;5014093;28;20271;-75
2022/10/02 09:48:44;;;;;;;1.90;1.47;;;;;;;14.94;86.40;100325.88;5013847;28;20199;-75
2022/10/02 09:51:21;;;;;;;4.10;2.23;;;;;;;15.03;87.41;100332.03;4996279;28;20648;-76
2022/10/02 09:53:58;;;;;;;3.87;2.77;;;;;;;15.04;86.62;100330.88;5014286;28;20164;-76
2022/10/02 09:57:10;;;;;;;0.80;0.80;;;;;;;15.11;86.27;100326.44;5013767;28;20215;-75
2022/10/02 10:00:04;;;;;;;1.20;1.07;;;;;;;15.21;84.99;100329.88;5013870;28;20653;-73
2022/10/02 10:02:53;;;;;;;0.63;0.63;;;;;;;15.36;84.23;100329.97;5013567;28;20165;-75
2022/10/02 10:05:56;;;;;;;0.60;0.60;;;;;;;15.41;83.57;100332.47;5014353;28;20176;-74
2022/10/02 10:09:00;;;;;;;1.43;1.33;;;;;;;15.43;82.24;100323.88;5013612;28;20203;-75
2022/10/02 10:11:48;;;;;;;2.47;0.87;;;;;;;15.42;82.97;100314.00;5012252;28;20239;-73
2022/10/02 10:14:29;;;;;;;1.80;0.97;;;;;;;15.55;81.73;100334.84;5013725;28;20323;-75
2022/10/02 10:17:18;;;;;;;1.50;1.40;;;;;;;15.81;80.22;100330.94;5028321;28;20196;-74
2022/10/02 10:20:11;;;;;;;0.40;0.40;;;;;;;15.77;76.46;100334.38;5007132;28;20213;-74
2022/10/02 10:22:51;;;;;;;2.10;1.40;;;;;;;15.92;77.74;100330.09;5012471;28;20169;-75
2022/10/02 10:25:29;;;;;;;0.30;0.30;;;;;;;15.98;77.52;100336.94;5013321;28;20182;-74
2022/10/02 10:27:54;;;;;;;1.37;0.83;;;;;;;15.99;76.68;100343.25;5012413;28;20242;-73
2022/10/02 10:30:28;;;;;;;1.33;1.23;;;;;;;15.78;76.61;100337.94;5013396;28;20176;-74
2022/10/02 10:33:03;;;;;;;0.83;0.53;;;;;;;15.55;76.44;100336.81;5013377;28;20218;-75
2022/10/02 10:35:51;;;;;;;0.83;0.83;;;;;;;15.48;77.03;100342.91;5013171;28;20176;-74
2022/10/02 10:38:31;;;;;;;7.53;2.73;;;;;;;15.44;77.27;100336.47;5013198;28;20248;-76
2022/10/02 10:41:17;;;;;;;0.73;0.30;;;;;;;15.31;77.33;100346.69;5028114;28;20632;-74
2022/10/02 10:44:00;;;;;;;0.80;0.53;;;;;;;15.17;75.94;100341.53;5013051;28;20311;-74
2022/10/02 10:46:46;;;;;;;0.30;0.30;;;;;;;15.10;76.09;100344.09;5012720;28;20173;-75
2022/10/02 10:49:29;;;;;;;0.50;0.50;;;;;;;15.01;77.44;100351.63;5012931;28;20176;-75
2022/10/02 10:52:12;;;;;;;0.10;0.10;;;;;;;15.01;77.23;100342.59;5012925;28;20205;-74
2022/10/02 10:55:13;;;;;;;0.73;0.53;;;;;;;15.12;77.46;100341.00;5028118;28;20243;-76
2022/10/02 10:58:14;;;;;;;0.20;0.20;;;;;;;15.14;75.96;100344.19;4993236;28;20204;-74
2022/10/02 11:01:07;;;;;;;0.37;0.37;;;;;;;15.26;73.75;100341.44;5012807;28;20177;-74
2022/10/02 11:03:51;;;;;;;1.10;1.03;;;;;;;15.43;72.81;100348.66;5010810;28;20200;-74
2022/10/02 11:06:44;;;;;;;0.47;0.47;;;;;;;15.40;72.01;100344.63;5012454;28;20280;-75
2022/10/02 11:09:39;;;;;;;0.40;0.27;;;;;;;15.44;71.92;100330.97;4994037;28;20296;-75
2022/10/02 11:12:28;;;;;;;3.23;1.37;;;;;;;15.65;73.55;100345.44;5012791;28;20177;-75
2022/10/02 11:15:17;;;;;;;8.10;1.07;;;;;;;15.75;74.76;100333.09;5027582;28;20192;-76
2022/10/02 11:18:18;;;;;;;4.90;1.03;;;;;;;15.87;73.93;100326.75;5012082;28;20319;-74
2022/10/02 11:21:14;;;;;;;6.13;0.50;;;;;;;15.90;74.89;100326.84;5012361;28;20584;-75
2022/10/02 11:23:46;;;;;;;3.00;0.87;;;;;;;15.96;75.96;100333.75;5012102;28;20196;-75
2022/10/02 11:26:41;;;;;;;1.03;0.93;;;;;;;15.65;75.59;100323.41;5012023;28;20641;-75
2022/10/02 11:29:33;;;;;;;4.80;1.07;;;;;;;15.61;74.70;100325.22;5012281;28;20188;-75
2022/10/02 11:32:21;;;;;;;6.57;0.77;;;;;;;15.55;74.61;100332.09;4994093;28;20193;-75
2022/10/02 11:35:12;;;;;;;1.53;1.50;;;;;;;15.44;75.36;100326.28;5027763;28;20203;-76
2022/10/02 11:37:52;;;;;;;0.37;0.37;;;;;;;15.50;75.31;100326.06;5013997;28;20191;-76
2022/10/02 11:40:30;;;;;;;1.23;0.70;;;;;;;15.53;74.72;100330.84;5010824;28;20176;-75
2022/10/02 11:43:12;;;;;;;0.60;0.60;;;;;;;15.69;76.86;100331.75;5017638;28;20180;-74
2022/10/02 11:45:58;;;;;;;2.77;1.57;;;;;;;15.92;75.79;100341.13;5018189;28;20187;-74
2022/10/02 11:48:45;;;;;;;2.07;1.17;;;;;;;16.17;73.82;100329.97;5019828;28;20199;-73
2022/10/02 11:51:49;;;;;;;4.80;1.27;;;;;;;16.45;73.38;100339.03;4992179;28;20576;-75
2022/10/02 11:54:44;;;;;;;3.57;2.00;;;;;;;16.51;73.58;100323.84;4991858;28;20183;-75
2022/10/02 11:57:31;;;;;;;2.97;1.00;;;;;;;16.35;74.15;100329.31;4990374;28;20185;-75
2022/10/02 12:00:11;;;;;;;3.93;0.70;;;;;;;16.36;74.52;100341.16;4974539;28;20181;-76
2022/10/02 12:02:52;;;;;;;8.60;1.03;;;;;;;16.26;72.33;100344.41;4992212;28;20227;-75
2022/10/02 12:05:45;;;;;;;9.73;3.57;;;;;;;16.15;73.75;100337.78;4991658;28;20184;-75
2022/10/02 12:08:45;;;;;;;3.10;1.33;;;;;;;15.89;74.43;100338.22;4991661;28;20292;-75
2022/10/02 12:11:40;;;;;;;0.40;0.40;;;;;;;15.76;74.82;100349.28;4974286;28;20249;-75
2022/10/02 12:14:48;;;;;;;2.00;0.13;;;;;;;15.52;75.29;100387.09;4988349;28;20300;-76
2022/10/02 12:17:29;;;;;;;1.20;0.40;;;;;;;14.60;78.26;100382.84;5000550;28;20192;-75
2022/10/02 12:27:03;;;;;;;4.27;0.80;;;;;;;13.03;93.49;100389.78;5013356;28;20234;-76
2022/10/02 12:30:00;;;;;;;0.07;0.00;;;;;;;12.81;97.91;100386.16;5024858;28;20184;-74
2022/10/02 12:32:37;;;;;;;0.53;0.50;;;;;;;12.72;100.00;100390.03;5023516;28;20791;-73